Date,TemperatureHighF,TemperatureAvgF,TemperatureLowF,DewpointHighF,DewpointAvgF,DewpointLowF,HumidityHigh,HumidityAvg,HumidityLow,PressureMaxIn,PressureMinIn,WindSpeedMaxMPH,WindSpeedAvgMPH,GustSpeedMaxMPH,PrecipitationSumIn
2013-9-1,92,80,74,78,70,64,79,72,56,30.00,29.89,18,1,18,0.00
2013-9-2,91,80,74,77,71,64,78,73,59,30.01,29.92,12,1,12,0.00
2013-9-3,93,82,75,77,71,64,78,70,55,30.03,29.92,13,1,13,0.00
2013-9-4,93,80,73,78,70,63,79,72,58,30.10,29.98,15,1,15,0.00
2013-9-5,90,78,72,78,68,61,78,72,63,30.10,30.04,9,0,9,0.00
2013-9-6,91,77,71,79,67,59,78,72,59,30.06,29.97,18,0,18,0.00
2013-9-7,72,71,71,60,60,59,67,67,67,30.02,29.97,4,0,4,0.00
2013-9-14,93,86,80,75,73,70,75,65,54,29.99,29.87,7,0,7,0.00
2013-9-15,91,80,74,77,68,58,75,66,54,30.08,29.98,15,1,15,0.00
2013-9-16,91,79,72,76,65,54,74,62,52,30.09,29.98,15,1,15,0.00
2013-9-17,89,77,72,75,62,54,74,61,51,30.08,30.01,15,1,15,0.00
2013-9-19,90,81,72,74,68,53,75,67,49,30.06,29.97,20,2,20,0.00
2013-9-20,89,79,70,71,66,54,75,65,53,30.05,29.91,14,1,14,0.00
2013-9-21,91,79,70,73,66,52,75,64,52,29.96,29.77,8,1,8,0.00
2013-9-22,90,78,74,78,62,52,74,61,46,29.86,29.76,16,1,16,0.00
2013-9-23,82,75,72,72,54,49,71,48,43,29.96,29.83,10,0,10,0.00
2013-9-24,75,74,73,51,50,50,45,44,41,29.96,29.90,14,1,14,0.00
2013-9-25,80,76,73,70,59,47,73,56,40,29.85,29.77,17,4,17,0.00
2013-9-26,90,80,72,76,58,44,73,50,31,29.88,29.76,12,2,12,0.00
2013-9-27,80,73,69,71,56,45,73,55,41,29.96,29.86,17,1,17,0.00
2013-9-28,72,70,69,52,45,42,49,41,37,29.97,29.91,6,0,6,0.00